Latest Coastal Weather Observations for Maatsuyker Island

IDT60701

Issued at 5:42 am EDT Tuesday 7 February 2023 (issued every 10 minutes, with the page automatically refreshed every 10 minutes)

About coastal observations | Map of coastal stations | Coastal observations for TAS | Marine services | Other Formats
Station Details ID: 094041 Name: MAATSUYKER ISLAND LIGHTHOUSE Lat: -43.66 Lon: 146.27 Height: 146.5 m
Data from the previous 72 hours. | See also: Recent months at Maatsuyker Island
Date/Time
EDT
Wind Sea
Height
m
Swell Vis
km
Cloud Weather Temp
°C
Press
MSL
hPa
Rain since
9am
mm
Dir  Spd
kts
Gust
kts
Height
m
Period
s
Dir
07/05:30am W 20 28 - - - - - - - 12.6 1015.7 0.4
07/05:00am W 20 25 - - - - - - - 12.7 1015.6 0.4
07/04:30am W 23 32 - - - - - - - 12.9 1015.1 0.4
07/04:00am W 24 28 - - - - - - - 13.2 1015.2 0.4
07/03:30am W 23 29 - - - - - - - 13.1 1015.2 0.4
07/03:00am WNW 28 34 - - - - - - - 12.8 1014.8 0.4
07/02:30am WNW 28 32 - - - - - - - 13.3 1014.8 0.4
07/02:00am WNW 28 32 - - - - - - - 13.0 1015.1 0.4
07/01:30am WNW 28 30 - - - - - - - 13.0 - 0.4
07/01:00am WNW 26 31 - - - - - - - 12.6 1015.0 0.4
07/12:30am WNW 32 36 - - - - - - - 13.3 1014.8 0.4
07/12:26am WNW 32 35 - - - - - - - 13.3 - 0.4
07/12:00am NW 30 34 - - - - - - - 12.8 1014.8 0.4
 
Date/Time
EDT
Wind Sea
Height
m
Swell Vis
km
Cloud Weather Temp
°C
Press
MSL
hPa
Rain since
9am
mm
Dir  Spd
kts
Gust
kts
Height
m
Period
s
Dir
06/11:38pm NW 35 38 - - - - - - - 12.7 - 0.4
06/11:30pm WNW 31 38 - - - - - - - 12.8 1015.0 0.4
06/11:00pm WNW 35 39 - - - - - - - 12.3 1014.8 0.4
06/10:30pm NW 33 37 - - - - - - - 12.2 1014.7 0.2
06/10:00pm NW 35 39 - - - - - - - 12.5 1014.6 0.0
06/09:48pm NW 35 40 - - - - - - - 12.4 - 0.0
06/09:30pm WNW 34 41 - - - - - - - 12.4 1014.9 0.0
06/09:00pm WNW 38 43 - - - - - - - 12.3 1013.6 0.0
06/08:30pm NW 37 43 - - - - - - - 13.5 1013.5 0.0
06/08:16pm NNW 38 41 - - - - - - - 13.3 1013.6 0.0
06/08:15pm NW 38 41 - - - - - - - 13.3 - 0.0
06/08:14pm NNW 37 41 - - - - - - - 13.3 1013.4 0.0
06/08:13pm NNE 38 41 - - - - - - - 13.3 - 0.0
06/08:11pm NNW 37 43 - - - - - - - 13.5 1013.4 0.0
06/08:10pm NW 37 41 - - - - - - - 13.5 - 0.0
06/08:09pm NNW 38 43 - - - - - - - 13.6 1013.3 0.0
06/08:08pm N 39 41 - - - - - - - 13.6 - 0.0
06/08:00pm NW 38 42 - - - - - - - 13.4 1013.6 0.0
06/07:30pm NW 39 45 - - - - - - - 13.4 1013.3 0.0
06/07:00pm NW 41 45 - - - - - - - 13.5 1013.3 0.0
06/06:30pm NW 40 46 - - - - - - - 13.5 1013.3 0.0
06/06:00pm WNW 41 46 - - - - - - - 13.9 1013.1 0.0
06/05:30pm WNW 40 44 - - - - - - - 13.8 1013.4 0.0
06/05:00pm WNW 41 45 - - - - - - - 14.5 1013.0 0.0
06/04:30pm WNW 41 46 - - - - - - - 14.2 1012.9 0.0
06/04:00pm WNW 41 45 - - - - - - - 14.4 1013.1 0.0
06/03:30pm WNW 40 45 - - - - - - - 14.7 1013.1 0.0
06/03:03pm NW 38 44 - - - - - - - 14.3 1013.4 0.0
06/03:02pm NW 39 43 - - - - - - - 14.3 - 0.0
06/03:00pm NW 37 44 - - - - - - - 15.1 1013.5 0.0
06/02:57pm NNW 39 44 - - - - - - - 14.9 - 0.0
06/02:39pm WNW 38 42 - - - - - - - 15.1 - 0.0
06/02:37pm NW 38 44 - - - - - - - 15.2 1013.3 0.0
06/02:36pm NNW 39 43 - - - - - - - 15.2 - 0.0
06/02:35pm NW 38 44 - - - - - - - 15.1 1013.2 0.0
06/02:34pm N 40 44 - - - - - - - 15.1 - 0.0
06/02:30pm NNW 38 43 - - - - - - - 15.0 1013.4 0.0
06/02:25pm NNW 39 45 - - - - - - - 14.8 1013.4 0.0
06/02:22pm NNW 39 45 - - - - - - - 15.0 1013.3 0.0
06/02:21pm N 39 42 - - - - - - - 15.0 - 0.0
06/02:16pm NNW 38 42 - - - - - - - 14.7 1013.5 0.0
06/02:15pm NW 38 41 - - - - - - - 14.7 - 0.0
06/02:09pm NNW 37 41 - - - - - - - 15.1 1013.4 0.0
06/02:08pm N 38 41 - - - - - - - 15.1 - 0.0
06/02:03pm NW 37 41 - - - - - - - 14.9 1013.6 0.0
06/02:02pm NW 37 40 - - - - - - - 14.9 - 0.0
06/02:01pm NW 37 41 - - - - - - - 15.0 1013.4 0.0
06/02:00pm NW 37 41 - - - - - - - 15.1 1013.4 0.0
06/01:58pm NW 36 41 - - - - - - - 15.2 1013.5 0.0
06/01:57pm WNW 37 40 - - - - - - - 15.2 - 0.0
06/01:56pm NW 36 41 - - - - - - - 15.2 1013.4 0.0
06/01:55pm NNW 37 40 - - - - - - - 15.2 - 0.0
06/01:30pm WNW 36 40 - - - - - - - 14.5 1013.9 0.0
06/01:00pm WNW 35 38 - - - - - - - 14.5 1014.0 0.0
06/12:30pm WNW 35 39 - - - - - - - 14.1 1013.8 0.0
06/12:00pm WNW 31 35 - - - - - - - 14.5 1014.0 0.0
06/11:30am WNW 35 40 - - - - - - - 14.3 1013.9 0.0
06/11:00am WNW 37 41 - - - - - - - 14.3 1013.6 0.0
06/10:30am WNW 35 38 - - - - - - - 13.7 1013.7 0.0
06/10:00am WNW 30 37 - - - - - - - 13.5 1013.6 0.0
06/09:30am WNW 27 32 - - - - - - - 13.0 1013.7 0.0
06/09:25am WNW 30 35 - - - - - - - 13.4 1013.6 0.0
06/09:24am WNW 26 29 - - - - - - - 13.4 - 0.0
06/09:00am WNW 37 43 2 4.0 14 SW 3 Cloudy Drizzle 13.1 1012.8 1.4
06/08:45am NW 39 47 - - - - - - - 12.5 1012.5 1.4
06/08:44am WNW 41 44 - - - - - - - 12.5 - 1.4
06/08:43am NW 39 47 - - - - - - - 13.0 1012.4 1.4
06/08:42am NNW 39 41 - - - - - - - 13.0 - 1.4
06/08:36am NNW 39 44 - - - - - - - 14.2 1012.5 0.4
06/08:35am WNW 37 43 - - - - - - - 14.2 - 0.4
06/08:34am NNW 39 43 - - - - - - - 14.2 - 0.4
06/08:30am NNW 40 44 - - - - - - - 14.3 1011.8 0.4
06/08:08am N 37 41 - - - - - - - 14.2 1011.4 0.4
06/08:07am NNW 37 40 - - - - - - - 14.2 - 0.4
06/08:06am N 37 41 - - - - - - - 14.2 1011.6 0.4
06/08:05am NNE 37 41 - - - - - - - 14.2 - 0.4
06/08:02am N 38 41 - - - - - - - 14.2 1011.9 0.4
06/08:01am NNW 37 40 - - - - - - - 14.2 - 0.4
06/08:00am N 38 41 - - - - - - - 14.1 1011.6 0.4
06/07:59am NNE 39 41 - - - - - - - 14.1 - 0.4
06/07:58am N 38 41 - - - - - - - 14.1 - 0.4
06/07:48am NW 37 39 - - - - - - - 14.0 - 0.4
06/07:30am NNW 37 41 - - - - - - - 13.7 1011.5 0.4
06/07:26am NNW 37 40 - - - - - - - 13.5 - 0.4
06/07:24am N 38 40 - - - - - - - 13.4 - 0.4
06/07:18am WNW 42 45 - - - - - - - 13.6 - 0.4
06/07:13am NNW 37 41 - - - - - - - 14.3 1011.6 0.4
06/07:12am NNW 35 40 - - - - - - - 14.3 - 0.4
06/07:11am NNW 37 41 - - - - - - - 14.2 1011.5 0.4
06/07:10am NNE 39 40 - - - - - - - 14.2 - 0.4
06/07:00am NNW 37 41 - - - - - - - 14.1 1011.6 0.4
06/06:58am NNW 36 39 - - - - - - - 14.2 - 0.4
06/06:55am N 38 41 - - - - - - - 14.1 1011.7 0.4
06/06:54am NW 37 40 - - - - - - - 14.1 - 0.4
06/06:53am N 38 41 - - - - - - - 14.2 1011.6 0.4
06/06:52am N 37 40 - - - - - - - 14.2 - 0.4
06/06:51am N 37 41 - - - - - - - 14.1 1011.5 0.4
06/06:50am NNW 39 41 - - - - - - - 14.1 - 0.4
06/06:45am NW 37 41 - - - - - - - 14.1 1011.4 0.4
06/06:44am NNE 37 40 - - - - - - - 14.1 - 0.4
06/06:30am NW 35 40 - - - - - - - 14.0 1011.7 0.4
06/06:25am NNW 36 40 - - - - - - - 13.9 1011.6 0.4
06/06:24am NW 35 39 - - - - - - - 13.9 - 0.4
06/06:23am NNW 36 40 - - - - - - - 13.9 1011.4 0.4
06/06:22am N 35 40 - - - - - - - 13.9 - 0.4
06/06:15am NNW 36 41 - - - - - - - 13.7 1011.6 0.4
06/06:14am NW 36 39 - - - - - - - 13.7 - 0.4
06/06:12am N 35 41 - - - - - - - 13.8 1011.4 0.4
06/06:11am NNE 38 41 - - - - - - - 13.8 - 0.4
06/06:06am NNW 35 39 - - - - - - - 13.8 - 0.4
06/06:00am NNW 35 39 2 3.5 15 SW 15 Mostly cloudy Distant precip. 13.6 1011.7 0.4
06/05:59am NW 35 39 - - - - - - - 13.8 - 0.4
06/05:54am NW 36 40 - - - - - - - 13.7 1011.3 0.4
06/05:53am N 36 38 - - - - - - - 13.7 - 0.4
06/05:41am NNW 36 39 - - - - - - - 13.7 1011.6 0.4
06/05:40am NW 36 38 - - - - - - - 13.7 - 0.4
06/05:35am N 37 42 - - - - - - - 13.5 1011.3 0.4
06/05:34am NNW 35 38 - - - - - - - 13.5 - 0.4
06/05:32am N 36 42 - - - - - - - 13.0 1011.1 0.4
06/05:31am NNE 39 42 - - - - - - - 13.0 - 0.4
06/05:30am NNW 35 42 - - - - - - - 13.1 1011.2 0.4
06/05:29am NNW 34 40 - - - - - - - 13.7 1011.3 0.4
06/05:28am NNW 34 40 - - - - - - - 13.7 - 0.4
06/05:27am NNW 33 39 - - - - - - - 13.5 1011.2 0.4
06/05:26am NNE 36 39 - - - - - - - 13.5 - 0.4
06/05:07am NNW 32 36 - - - - - - - 13.6 - 0.4
06/05:00am NNW 34 39 - - - - - - - 13.8 1011.0 0.4
06/04:57am NNW 35 39 - - - - - - - 13.6 1011.1 0.4
06/04:56am N 34 37 - - - - - - - 13.6 - 0.4
06/04:52am NW 35 39 - - - - - - - 13.7 - 0.4
06/04:36am N 34 39 - - - - - - - 13.4 1011.3 0.4
06/04:30am N 35 40 - - - - - - - 13.4 1011.2 0.4
06/04:29am N 35 40 - - - - - - - 13.4 1011.2 0.4
06/04:28am NNE 33 36 - - - - - - - 13.4 - 0.4
06/04:27am NNW 35 40 - - - - - - - 13.1 1011.3 0.4
06/04:26am NW 35 38 - - - - - - - 13.1 - 0.4
06/04:22am N 36 39 - - - - - - - 13.8 - 0.4
06/04:00am NNW 35 42 - - - - - - - 13.5 1011.4 0.4
06/03:49am NNW 39 43 - - - - - - - 13.4 1011.0 0.4
06/03:48am N 39 43 - - - - - - - 13.4 - 0.4
06/03:47am N 39 43 - - - - - - - 13.4 1011.1 0.4
06/03:46am NNE 40 43 - - - - - - - 13.4 - 0.4
06/03:40am N 39 43 - - - - - - - 13.4 1011.2 0.4
06/03:39am NNW 39 42 - - - - - - - 13.4 - 0.4
06/03:36am N 39 43 - - - - - - - 13.0 1011.0 0.4
06/03:35am NNE 40 43 - - - - - - - 13.0 - 0.4
06/03:30am NNW 37 42 - - - - - - - 13.2 1011.2 0.4
06/03:00am NNW 32 37 - - - - - - - 13.3 1011.7 0.2
06/02:58am NNW 30 33 - - - - - - - 13.4 - 0.2
06/02:56am NNE 34 37 - - - - - - - 13.4 - 0.2
06/02:52am N 32 40 - - - - - - - 13.1 1011.7 0.2
06/02:51am NNW 31 37 - - - - - - - 13.1 - 0.2
06/02:50am NNW 33 40 - - - - - - - 13.2 1011.7 0.2
06/02:49am NNE 33 37 - - - - - - - 13.2 - 0.2
06/02:30am NNW 32 38 - - - - - - - 13.1 1011.5 0.0
06/02:11am NNW 33 41 - - - - - - - 13.0 1011.5 0.0
06/02:10am NNW 31 37 - - - - - - - 13.0 - 0.0
06/02:06am N 34 41 - - - - - - - 12.9 1011.5 0.0
06/02:05am N 35 41 - - - - - - - 12.9 - 0.0
06/02:03am N 34 39 - - - - - - - 12.9 1011.5 0.0
06/02:02am NNW 33 38 - - - - - - - 12.9 - 0.0
06/02:00am N 35 40 - - - - - - - 12.9 1011.7 0.0
06/01:59am NNE 36 39 - - - - - - - 12.9 - 0.0
06/01:53am NNW 31 40 - - - - - - - 13.3 1011.6 0.0
06/01:52am N 37 40 - - - - - - - 13.3 - 0.0
06/01:49am NNW 26 36 - - - - - - - 13.4 1012.0 0.0
06/01:48am NNW 26 36 - - - - - - - 13.4 - 0.0
06/01:30am NNW 25 32 - - - - - - - 13.1 - 0.0
06/01:00am NNW 20 28 - - - - - - - 13.6 1012.4 0.0
06/12:30am NNW 21 32 - - - - - - - 13.2 1012.7 0.0
06/12:29am NNW 22 32 - - - - - - - 13.4 1012.7 0.0
06/12:00am NW 28 35 - - - - - - - 13.1 1012.3 0.0
 
Date/Time
EDT
Wind Sea
Height
m
Swell Vis
km
Cloud Weather Temp
°C
Press
MSL
hPa
Rain since
9am
mm
Dir  Spd
kts
Gust
kts
Height
m
Period
s
Dir
05/11:30pm NNW 30 35 - - - - - - - 13.3 1012.4 0.0
05/11:00pm NNW 34 38 - - - - - - - 13.6 1012.3 0.0
05/10:52pm NNW 35 39 - - - - - - - 13.7 - 0.0
05/10:41pm NNW 31 35 - - - - - - - 14.1 1012.6 0.0
05/10:40pm N 33 35 - - - - - - - 14.1 - 0.0
05/10:30pm NNW 34 39 - - - - - - - 14.0 1012.6 0.0
05/10:00pm NNW 27 33 - - - - - - - 13.4 1013.0 0.0
05/09:30pm NNW 36 41 - - - - - - - 13.1 1012.7 0.0
05/09:02pm NNW 35 45 - - - - - - - 14.2 1012.1 0.0
05/09:01pm NNW 35 45 - - - - - - - 14.2 - 0.0
05/09:00pm NNW 35 40 - - - - - - - 14.1 1012.2 0.0
05/08:33pm NW 38 42 - - - - - - - 13.6 1012.2 0.0
05/08:30pm NW 38 42 - - - - - - - 13.6 1012.2 0.0
05/08:15pm NW 36 40 - - - - - - - 14.3 - 0.0
05/08:00pm NNW 35 41 - - - - - - - 14.2 1011.8 0.0
05/07:59pm NNW 35 40 - - - - - - - 14.4 1011.7 0.0
05/07:56pm NNW 35 40 - - - - - - - 14.2 1011.9 0.0
05/07:52pm NNW 35 40 - - - - - - - 14.3 1011.6 0.0
05/07:36pm NNW 35 39 - - - - - - - 14.4 - 0.0
05/07:30pm N 33 37 - - - - - - - 14.3 1012.0 0.0
05/07:26pm NNW 32 37 - - - - - - - 14.5 1011.9 0.0
05/07:25pm N 33 37 - - - - - - - 14.5 - 0.0
05/07:00pm NNW 30 35 - - - - - - - 14.4 1011.9 0.0
05/06:55pm NNW 31 38 - - - - - - - 14.3 1011.7 0.0
05/06:54pm NW 31 35 - - - - - - - 14.3 - 0.0
05/06:30pm N 34 39 - - - - - - - 13.9 1011.3 0.0
05/06:19pm NNW 31 35 - - - - - - - 14.5 - 0.0
05/06:16pm N 34 36 - - - - - - - 14.4 - 0.0
05/06:10pm N 32 37 - - - - - - - 14.5 1011.6 0.0
05/06:09pm NNW 31 35 - - - - - - - 14.5 - 0.0
05/06:06pm N 32 36 - - - - - - - 14.5 1011.6 0.0
05/06:05pm NNE 33 36 - - - - - - - 14.5 - 0.0
05/06:00pm N 32 36 - - - - - - - 14.4 1011.7 0.0
05/05:59pm NNW 31 35 - - - - - - - 14.4 - 0.0
05/05:43pm N 31 36 - - - - - - - 14.5 1012.0 0.0
05/05:42pm N 31 35 - - - - - - - 14.5 - 0.0
05/05:41pm N 31 36 - - - - - - - 14.5 1012.0 0.0
05/05:40pm NNW 29 32 - - - - - - - 14.5 - 0.0
05/05:30pm NNE 35 39 - - - - - - - 14.5 1011.8 0.0
05/05:20pm N 32 36 - - - - - - - 14.6 1011.9 0.0
05/05:19pm NNE 33 36 - - - - - - - 14.6 - 0.0
05/05:18pm N 31 36 - - - - - - - 14.6 1012.0 0.0
05/05:17pm NW 31 36 - - - - - - - 14.6 - 0.0
05/05:15pm NNW 31 36 - - - - - - - 14.7 1011.9 0.0
05/05:14pm NNE 34 36 - - - - - - - 14.7 - 0.0
05/05:06pm NNW 29 34 - - - - - - - 14.4 1012.0 0.0
05/05:05pm NNW 29 33 - - - - - - - 14.4 - 0.0
05/05:04pm NNW 29 34 - - - - - - - 14.6 1012.1 0.0
05/05:03pm NNE 31 33 - - - - - - - 14.6 - 0.0
05/05:00pm NNW 29 33 - - - - - - - 14.2 1012.0 0.0
05/04:49pm NNW 30 35 - - - - - - - 14.2 1011.8 0.0
05/04:30pm N 31 36 - - - - - - - 14.3 1011.9 0.0
05/04:29pm NNW 30 35 - - - - - - - 14.3 - 0.0
05/04:26pm NNE 33 36 - - - - - - - 14.2 - 0.0
05/04:19pm N 29 32 - - - - - - - 14.5 - 0.0
05/04:09pm NNE 33 35 - - - - - - - 14.5 - 0.0
05/04:07pm NNW 31 34 - - - - - - - 14.3 - 0.0
05/04:00pm N 31 35 - - - - - - - 14.5 1012.1 0.0
05/03:45pm NNW 32 36 - - - - - - - 14.0 1012.1 0.0
05/03:44pm N 31 35 - - - - - - - 14.0 - 0.0
05/03:42pm N 32 36 - - - - - - - 14.2 1012.3 0.0
05/03:41pm NW 31 33 - - - - - - - 14.2 - 0.0
05/03:30pm N 31 35 - - - - - - - 14.6 1012.3 0.0
05/03:29pm N 31 35 - - - - - - - 14.7 - 0.0
05/03:06pm N 29 34 - - - - - - - 14.6 1012.3 0.0
05/03:05pm NNE 31 34 - - - - - - - 14.6 - 0.0
05/03:04pm NNW 28 33 - - - - - - - 14.7 1012.3 0.0
05/03:02pm NW 27 30 - - - - - - - 14.6 - 0.0
05/03:00pm N 30 34 - - - - - - - 14.7 1012.3 0.0
05/02:33pm NNW 31 35 - - - - - - - 14.2 1012.5 0.0
05/02:32pm NNE 33 35 - - - - - - - 14.2 - 0.0
05/02:30pm NNW 30 34 - - - - - - - 14.3 1012.7 0.0
05/02:28pm NNW 30 33 - - - - - - - 14.5 1012.7 0.0
05/02:27pm NW 30 33 - - - - - - - 14.5 - 0.0
05/02:24pm NNW 30 33 - - - - - - - 14.6 1012.6 0.0
05/02:22pm N 31 32 - - - - - - - 14.3 - 0.0
05/02:14pm NNW 30 35 - - - - - - - 14.7 1012.3 0.0
05/02:13pm NW 29 33 - - - - - - - 14.7 - 0.0
05/02:00pm N 32 36 - - - - - - - 14.4 1012.4 0.0
05/01:55pm N 33 36 - - - - - - - 14.1 - 0.0
05/01:46pm NNW 29 32 - - - - - - - 14.1 - 0.0
05/01:37pm NNE 31 33 - - - - - - - 14.0 - 0.0
05/01:30pm NNW 30 35 - - - - - - - 14.1 1012.5 0.0
05/01:29pm N 30 35 - - - - - - - 14.2 - 0.0
05/01:17pm NNW 30 35 - - - - - - - 14.2 1012.4 0.0
05/01:16pm NW 29 35 - - - - - - - 14.2 - 0.0
05/01:15pm NNW 30 34 - - - - - - - 14.3 1012.5 0.0
05/01:14pm N 33 34 - - - - - - - 14.3 - 0.0
05/01:08pm NNW 29 33 - - - - - - - 14.5 - 0.0
05/01:00pm NNW 32 35 - - - - - - - 14.2 1012.5 0.0
05/12:59pm N 33 34 - - - - - - - 14.2 - 0.0
05/12:35pm NNW 30 34 - - - - - - - 14.1 - 0.0
05/12:32pm N 32 35 - - - - - - - 14.0 - 0.0
05/12:30pm NNW 31 34 - - - - - - - 14.0 1012.3 0.0
05/12:27pm N 31 32 - - - - - - - 14.1 - 0.0
05/12:00pm NNW 29 33 - - - - - - - 14.0 1012.4 0.0
05/11:39am NW 31 35 - - - - - - - 14.0 1012.0 0.0
05/11:38am N 32 35 - - - - - - - 14.0 - 0.0
05/11:30am NW 30 33 - - - - - - - 14.1 1012.2 0.0
05/11:12am NNW 30 33 - - - - - - - 13.8 1012.1 0.0
05/11:11am NW 31 33 - - - - - - - 13.8 - 0.0
05/11:07am NW 28 31 - - - - - - - 14.0 1012.0 0.0
05/11:06am N 29 31 - - - - - - - 14.0 - 0.0
05/11:00am NW 28 31 - - - - - - - 13.9 1012.0 0.0
05/10:54am NW 27 30 - - - - - - - 14.0 1012.0 0.0
05/10:53am NNW 27 30 - - - - - - - 14.0 - 0.0
05/10:30am NW 26 30 - - - - - - - 13.9 1012.0 0.0
05/10:00am NW 23 27 - - - - - - - 13.9 1011.8 0.0
05/09:30am WNW 24 28 - - - - - - - 13.5 1011.7 0.0
05/09:00am WNW 24 27 1 2.5 13 SW 20 Mostly cloudy Haze 13.1 1011.7 1.8
05/08:30am WNW 23 26 - - - - - - - 13.1 1011.3 1.8
05/08:00am WNW 19 24 - - - - - - - 13.0 1011.2 1.8
05/07:30am WNW 19 22 - - - - - - - 12.8 1010.8 1.8
05/07:00am W 17 21 - - - - - - - 12.6 1010.3 1.8
05/06:30am WNW 17 20 - - - - - - - 12.7 1009.9 1.8
05/06:00am W 11 18 1 2.0 14 SW 15 Mostly cloudy Haze 12.5 1009.6 1.8
05/05:30am W 11 15 - - - - - - - 12.5 1009.2 1.8
05/05:00am W 16 19 - - - - - - - 12.4 1008.9 1.8
05/04:30am WSW 13 18 - - - - - - - 12.4 1008.6 1.8
05/04:00am SW 13 17 - - - - - - - 12.5 1008.5 1.8
05/03:30am SW 14 18 - - - - - - - 12.5 1008.4 1.8
05/03:00am SW 18 23 - - - - - - - 12.5 1008.1 1.8
05/02:30am SW 17 25 - - - - - - - 12.3 1007.9 1.8
05/02:00am SW 17 26 - - - - - - - 12.1 1007.7 1.6
05/01:30am SW 19 25 - - - - - - - 12.3 - 1.6
05/01:01am SW 18 30 - - - - - - - 12.5 1007.2 1.6
05/01:00am SW 17 26 - - - - - - - 12.6 1007.2 1.6
05/12:30am SW 21 27 - - - - - - - 12.6 1007.0 1.6
05/12:00am SW 21 27 - - - - - - - 12.5 1006.8 1.6
 
Date/Time
EDT
Wind Sea
Height
m
Swell Vis
km
Cloud Weather Temp
°C
Press
MSL
hPa
Rain since
9am
mm
Dir  Spd
kts
Gust
kts
Height
m
Period
s
Dir
04/11:30pm SW 20 27 - - - - - - - 12.4 1006.7 1.6
04/11:00pm SW 21 27 - - - - - - - 12.4 1006.3 1.6
04/10:38pm SW 19 27 - - - - - - - 12.3 1006.3 1.6
04/10:37pm WSW 17 21 - - - - - - - 12.3 - 1.6
04/10:30pm SSW 23 30 - - - - - - - 12.4 1006.2 1.6
04/10:22pm SSW 18 28 - - - - - - - 12.4 1006.1 1.6
04/10:21pm SSW 18 28 - - - - - - - 12.4 - 1.6
04/10:00pm SW 17 26 - - - - - - - 12.5 1006.0 1.6
04/09:30pm SW 18 24 - - - - - - - 11.8 1005.5 1.6
04/09:17pm WSW 16 27 - - - - - - - 12.1 1005.2 1.6
04/09:16pm WSW 16 27 - - - - - - - 12.1 - 1.6
04/09:00pm WSW 18 26 - - - - - - - 12.0 1004.8 1.6
04/08:42pm WSW 19 30 - - - - - - - 12.0 1004.4 1.6
04/08:41pm WSW 19 30 - - - - - - - 12.0 - 1.6
04/08:30pm SW 20 27 - - - - - - - 12.1 1004.2 1.6
04/08:00pm SW 20 29 - - - - - - - 12.1 1003.9 1.6
04/07:30pm SW 23 28 - - - - - - - 12.2 1003.3 1.6
04/07:00pm SW 21 28 - - - - - - - 12.2 1002.5 1.6
04/06:30pm SW 22 27 - - - - - - - 12.5 1002.0 1.6
04/06:00pm SW 22 31 - - - - - - - 12.4 1001.6 1.6
04/05:45pm SW 20 32 - - - - - - - 12.3 1001.5 1.6
04/05:44pm SW 20 32 - - - - - - - 12.3 - 1.6
04/05:30pm SW 23 30 - - - - - - - 12.4 1001.3 1.6
04/05:00pm SSW 24 33 - - - - - - - 12.7 1000.9 1.6
04/04:44pm SSW 21 33 - - - - - - - 13.0 1000.5 1.6
04/04:43pm SSW 21 33 - - - - - - - 13.0 - 1.6
04/04:30pm SW 22 30 - - - - - - - 12.6 1000.4 1.6
04/04:00pm SSW 21 29 - - - - - - - 12.6 1000.1 1.6
04/03:39pm SSW 22 32 - - - - - - - 12.5 999.9 1.6
04/03:38pm SSW 22 32 - - - - - - - 12.5 - 1.6
04/03:30pm SSW 25 32 - - - - - - - 12.5 999.7 1.6
04/03:01pm SSW 24 34 - - - - - - - 12.3 999.5 1.6
04/03:00pm SSW 25 34 - - - - - - - 12.3 999.5 1.6
04/02:30pm SSW 26 36 - - - - - - - 12.6 999.2 1.6
04/02:29pm SSW 26 36 - - - - - - - 12.5 - 1.6
04/02:00pm SSW 26 35 - - - - - - - 12.5 998.8 1.6
04/01:51pm SSW 23 34 - - - - - - - 12.5 998.7 1.6
04/01:50pm SSW 23 34 - - - - - - - 12.5 - 1.6
04/01:30pm SSW 26 33 - - - - - - - 12.6 998.4 1.6
04/01:00pm SSW 25 32 - - - - - - - 12.4 998.4 1.6
04/12:36pm SSW 24 34 - - - - - - - 12.3 998.0 1.6
04/12:35pm SSW 24 34 - - - - - - - 12.3 - 1.6
04/12:30pm SSW 23 30 - - - - - - - 12.3 998.0 1.6
04/12:00pm SSW 25 31 - - - - - - - 12.0 997.6 1.6
04/11:48am SSW 25 35 - - - - - - - 12.1 997.6 1.6
04/11:47am S 25 35 - - - - - - - 12.1 - 1.6
04/11:30am SSW 23 30 - - - - - - - 12.1 997.4 1.0
04/11:00am SSW 24 33 - - - - - - - 12.0 996.9 0.8
04/10:58am SSW 23 33 - - - - - - - 12.1 - 0.8
04/10:30am SSW 26 31 - - - - - - - 12.2 996.6 0.4
04/10:00am SSW 25 32 - - - - - - - 12.2 996.3 0.2
04/09:30am SSW 28 35 - - - - - - - 12.0 995.8 0.2
04/09:00am S 29 37 2 3.0 13 SW 3 Cloudy Drizzle 12.3 995.4 29.0
04/08:30am SSW 25 33 - - - - - - - 12.5 995.3 29.0
04/08:00am SSW 21 30 - - - - - - - 12.6 994.8 28.6
04/07:53am SSW 20 30 - - - - - - - 12.5 - 28.6
04/07:42am S 25 29 - - - - - - - 12.6 - 28.6
04/07:33am SW 20 30 - - - - - - - 12.4 - 28.6
04/07:30am SW 21 30 - - - - - - - 12.4 994.4 28.6
04/07:13am SSW 21 31 - - - - - - - 12.4 - 28.6
04/07:00am SSW 21 29 - - - - - - - 12.3 993.8 28.6
04/06:30am SW 20 26 - - - - - - - 12.1 993.6 28.6
04/06:16am SW 21 31 - - - - - - - 11.7 - 28.6
04/06:00am SW 22 28 2 4.5 15 SW 5 Cloudy Recent precip. 11.8 993.3 28.6

Other formats

Comma delimited format used in spreadsheet applications
http://www.bom.gov.au/fwo/IDT60701/IDT60701.94962.axf

JavaScript Object Notation format (JSON) in row-major order
http://www.bom.gov.au/fwo/IDT60701/IDT60701.94962.json

Data quality

Most of these data are generated automatically and are frequently updated. Quality checks on data are not normally performed. It is possible for incorrect values to appear. Refer to information at About Latest Weather Observations and please check the disclaimer before using these data.